sensor_id;sensor_type;location;lat;lon;timestamp;P1;durP1;ratioP1;P2;durP2;ratioP2
1446;SDS011;717;51.522;7.266;2023-08-17T00:01:39;4.20;;;2.67;;
1446;SDS011;717;51.522;7.266;2023-08-17T00:04:09;4.53;;;2.90;;
1446;SDS011;717;51.522;7.266;2023-08-17T00:06:40;4.07;;;2.97;;
1446;SDS011;717;51.522;7.266;2023-08-17T00:09:10;5.40;;;3.17;;
1446;SDS011;717;51.522;7.266;2023-08-17T00:11:43;3.25;;;2.67;;
1446;SDS011;717;51.522;7.266;2023-08-17T00:14:13;3.95;;;2.65;;
1446;SDS011;717;51.522;7.266;2023-08-17T00:16:44;3.38;;;2.70;;
1446;SDS011;717;51.522;7.266;2023-08-17T00:19:14;3.65;;;2.75;;
1446;SDS011;717;51.522;7.266;2023-08-17T00:21:44;2.97;;;2.38;;
1446;SDS011;717;51.522;7.266;2023-08-17T00:24:14;2.58;;;2.38;;
1446;SDS011;717;51.522;7.266;2023-08-17T00:26:47;4.40;;;2.58;;
1446;SDS011;717;51.522;7.266;2023-08-17T00:29:18;4.15;;;2.70;;
1446;SDS011;717;51.522;7.266;2023-08-17T00:31:48;3.65;;;2.40;;
1446;SDS011;717;51.522;7.266;2023-08-17T00:34:19;3.08;;;2.35;;
1446;SDS011;717;51.522;7.266;2023-08-17T00:36:49;2.42;;;2.13;;
1446;SDS011;717;51.522;7.266;2023-08-17T00:39:19;3.22;;;2.40;;
1446;SDS011;717;51.522;7.266;2023-08-17T00:41:52;2.63;;;2.00;;
1446;SDS011;717;51.522;7.266;2023-08-17T00:44:22;4.22;;;2.08;;
1446;SDS011;717;51.522;7.266;2023-08-17T00:46:52;1.80;;;1.70;;
1446;SDS011;717;51.522;7.266;2023-08-17T00:49:22;3.28;;;2.33;;
1446;SDS011;717;51.522;7.266;2023-08-17T00:51:53;2.58;;;2.17;;
1446;SDS011;717;51.522;7.266;2023-08-17T00:54:23;4.07;;;2.45;;
1446;SDS011;717;51.522;7.266;2023-08-17T00:56:57;3.28;;;2.20;;
1446;SDS011;717;51.522;7.266;2023-08-17T00:59:30;2.92;;;2.50;;
1446;SDS011;717;51.522;7.266;2023-08-17T01:02:03;3.40;;;2.45;;
1446;SDS011;717;51.522;7.266;2023-08-17T01:04:36;3.10;;;2.50;;
1446;SDS011;717;51.522;7.266;2023-08-17T01:07:06;2.53;;;2.33;;
1446;SDS011;717;51.522;7.266;2023-08-17T01:09:36;3.17;;;2.30;;
1446;SDS011;717;51.522;7.266;2023-08-17T01:12:11;3.70;;;2.60;;
1446;SDS011;717;51.522;7.266;2023-08-17T01:14:49;3.47;;;2.67;;
1446;SDS011;717;51.522;7.266;2023-08-17T01:17:26;3.10;;;2.42;;
1446;SDS011;717;51.522;7.266;2023-08-17T01:20:02;2.92;;;2.45;;
1446;SDS011;717;51.522;7.266;2023-08-17T01:22:36;3.50;;;3.00;;
1446;SDS011;717;51.522;7.266;2023-08-17T01:25:12;3.53;;;2.25;;
1446;SDS011;717;51.522;7.266;2023-08-17T01:27:43;3.13;;;2.50;;
1446;SDS011;717;51.522;7.266;2023-08-17T01:30:15;3.22;;;2.50;;
1446;SDS011;717;51.522;7.266;2023-08-17T01:32:50;3.30;;;2.47;;
1446;SDS011;717;51.522;7.266;2023-08-17T01:35:28;4.18;;;3.15;;
1446;SDS011;717;51.522;7.266;2023-08-17T01:38:04;4.15;;;3.20;;
1446;SDS011;717;51.522;7.266;2023-08-17T01:40:41;3.60;;;3.10;;
1446;SDS011;717;51.522;7.266;2023-08-17T01:43:12;3.53;;;3.20;;
1446;SDS011;717;51.522;7.266;2023-08-17T01:45:44;4.15;;;3.38;;
1446;SDS011;717;51.522;7.266;2023-08-17T01:48:14;3.40;;;3.03;;
1446;SDS011;717;51.522;7.266;2023-08-17T01:50:44;3.63;;;3.08;;
1446;SDS011;717;51.522;7.266;2023-08-17T01:53:14;4.75;;;2.85;;
1446;SDS011;717;51.522;7.266;2023-08-17T01:55:47;4.03;;;3.60;;
1446;SDS011;717;51.522;7.266;2023-08-17T01:58:20;4.70;;;3.25;;
1446;SDS011;717;51.522;7.266;2023-08-17T02:00:50;3.30;;;3.00;;
1446;SDS011;717;51.522;7.266;2023-08-17T02:03:20;4.80;;;3.42;;
1446;SDS011;717;51.522;7.266;2023-08-17T02:05:50;3.53;;;3.22;;
1446;SDS011;717;51.522;7.266;2023-08-17T02:08:20;4.43;;;3.10;;
1446;SDS011;717;51.522;7.266;2023-08-17T02:10:55;3.65;;;2.83;;
1446;SDS011;717;51.522;7.266;2023-08-17T02:13:25;3.05;;;2.80;;
1446;SDS011;717;51.522;7.266;2023-08-17T02:16:01;3.35;;;3.05;;
1446;SDS011;717;51.522;7.266;2023-08-17T02:18:32;4.28;;;2.90;;
1446;SDS011;717;51.522;7.266;2023-08-17T02:21:02;3.65;;;3.00;;
1446;SDS011;717;51.522;7.266;2023-08-17T02:23:32;3.03;;;2.65;;
1446;SDS011;717;51.522;7.266;2023-08-17T02:26:05;4.07;;;3.00;;
1446;SDS011;717;51.522;7.266;2023-08-17T02:28:35;3.25;;;2.95;;
1446;SDS011;717;51.522;7.266;2023-08-17T02:31:06;3.70;;;2.97;;
1446;SDS011;717;51.522;7.266;2023-08-17T02:33:36;4.82;;;3.10;;
1446;SDS011;717;51.522;7.266;2023-08-17T02:36:06;4.72;;;2.85;;
1446;SDS011;717;51.522;7.266;2023-08-17T02:38:36;3.38;;;2.90;;
1446;SDS011;717;51.522;7.266;2023-08-17T02:41:09;3.25;;;2.95;;
1446;SDS011;717;51.522;7.266;2023-08-17T02:43:39;3.72;;;3.25;;
1446;SDS011;717;51.522;7.266;2023-08-17T02:46:11;3.03;;;2.67;;
1446;SDS011;717;51.522;7.266;2023-08-17T02:48:42;3.30;;;2.75;;
1446;SDS011;717;51.522;7.266;2023-08-17T02:51:12;4.00;;;2.70;;
1446;SDS011;717;51.522;7.266;2023-08-17T02:53:43;3.05;;;2.78;;
1446;SDS011;717;51.522;7.266;2023-08-17T02:56:15;4.93;;;3.15;;
1446;SDS011;717;51.522;7.266;2023-08-17T02:58:46;3.88;;;3.40;;
1446;SDS011;717;51.522;7.266;2023-08-17T03:01:17;5.05;;;3.63;;
1446;SDS011;717;51.522;7.266;2023-08-17T03:03:48;3.80;;;3.33;;
1446;SDS011;717;51.522;7.266;2023-08-17T03:06:18;3.70;;;3.17;;
1446;SDS011;717;51.522;7.266;2023-08-17T03:08:48;4.63;;;3.72;;
1446;SDS011;717;51.522;7.266;2023-08-17T03:11:22;3.92;;;2.85;;
1446;SDS011;717;51.522;7.266;2023-08-17T03:13:52;5.40;;;3.90;;
1446;SDS011;717;51.522;7.266;2023-08-17T03:16:27;6.28;;;3.90;;
1446;SDS011;717;51.522;7.266;2023-08-17T03:18:59;5.00;;;3.85;;
1446;SDS011;717;51.522;7.266;2023-08-17T03:21:29;5.03;;;3.58;;
1446;SDS011;717;51.522;7.266;2023-08-17T03:23:59;5.53;;;3.63;;
1446;SDS011;717;51.522;7.266;2023-08-17T03:26:32;4.22;;;3.60;;
1446;SDS011;717;51.522;7.266;2023-08-17T03:29:03;5.43;;;3.67;;
1446;SDS011;717;51.522;7.266;2023-08-17T03:31:35;4.05;;;3.42;;
1446;SDS011;717;51.522;7.266;2023-08-17T03:34:07;3.88;;;3.20;;
1446;SDS011;717;51.522;7.266;2023-08-17T03:36:37;5.40;;;3.22;;
1446;SDS011;717;51.522;7.266;2023-08-17T03:39:07;4.00;;;3.50;;
1446;SDS011;717;51.522;7.266;2023-08-17T03:41:41;3.88;;;3.08;;
1446;SDS011;717;51.522;7.266;2023-08-17T03:44:12;5.90;;;3.42;;
1446;SDS011;717;51.522;7.266;2023-08-17T03:46:42;5.53;;;3.25;;
1446;SDS011;717;51.522;7.266;2023-08-17T03:49:12;4.70;;;3.20;;
1446;SDS011;717;51.522;7.266;2023-08-17T03:51:43;4.03;;;3.63;;
1446;SDS011;717;51.522;7.266;2023-08-17T03:54:13;3.47;;;3.15;;
1446;SDS011;717;51.522;7.266;2023-08-17T03:56:46;3.60;;;3.25;;
1446;SDS011;717;51.522;7.266;2023-08-17T03:59:16;3.55;;;3.00;;
1446;SDS011;717;51.522;7.266;2023-08-17T04:01:46;4.43;;;3.45;;
1446;SDS011;717;51.522;7.266;2023-08-17T04:04:16;4.40;;;3.35;;
1446;SDS011;717;51.522;7.266;2023-08-17T04:06:47;4.63;;;3.42;;
1446;SDS011;717;51.522;7.266;2023-08-17T04:09:17;4.05;;;3.35;;
1446;SDS011;717;51.522;7.266;2023-08-17T04:11:50;3.92;;;3.50;;
1446;SDS011;717;51.522;7.266;2023-08-17T04:14:22;4.50;;;3.65;;
1446;SDS011;717;51.522;7.266;2023-08-17T04:16:54;3.70;;;3.40;;
1446;SDS011;717;51.522;7.266;2023-08-17T04:19:25;6.45;;;4.40;;
1446;SDS011;717;51.522;7.266;2023-08-17T04:21:55;5.45;;;3.83;;
1446;SDS011;717;51.522;7.266;2023-08-17T04:24:25;4.25;;;3.83;;
1446;SDS011;717;51.522;7.266;2023-08-17T04:26:58;5.43;;;3.88;;
1446;SDS011;717;51.522;7.266;2023-08-17T04:29:28;4.90;;;4.00;;
1446;SDS011;717;51.522;7.266;2023-08-17T04:32:01;4.47;;;3.80;;
1446;SDS011;717;51.522;7.266;2023-08-17T04:34:32;4.32;;;3.85;;
1446;SDS011;717;51.522;7.266;2023-08-17T04:37:03;4.32;;;3.80;;
1446;SDS011;717;51.522;7.266;2023-08-17T04:39:33;4.03;;;3.70;;
1446;SDS011;717;51.522;7.266;2023-08-17T04:42:07;5.82;;;3.90;;
1446;SDS011;717;51.522;7.266;2023-08-17T04:44:38;4.07;;;3.78;;
1446;SDS011;717;51.522;7.266;2023-08-17T04:47:09;5.72;;;4.00;;
1446;SDS011;717;51.522;7.266;2023-08-17T04:49:40;4.85;;;3.67;;
1446;SDS011;717;51.522;7.266;2023-08-17T04:52:11;5.88;;;4.40;;
1446;SDS011;717;51.522;7.266;2023-08-17T04:54:42;5.20;;;4.20;;
1446;SDS011;717;51.522;7.266;2023-08-17T04:57:14;5.20;;;4.38;;
1446;SDS011;717;51.522;7.266;2023-08-17T04:59:46;5.53;;;4.10;;
1446;SDS011;717;51.522;7.266;2023-08-17T05:02:16;4.80;;;4.38;;
1446;SDS011;717;51.522;7.266;2023-08-17T05:04:47;5.35;;;4.32;;
1446;SDS011;717;51.522;7.266;2023-08-17T05:07:17;6.35;;;4.47;;
1446;SDS011;717;51.522;7.266;2023-08-17T05:09:47;4.88;;;4.35;;
1446;SDS011;717;51.522;7.266;2023-08-17T05:12:20;4.82;;;4.38;;
1446;SDS011;717;51.522;7.266;2023-08-17T05:14:51;5.00;;;4.50;;
1446;SDS011;717;51.522;7.266;2023-08-17T05:17:21;5.13;;;4.57;;
1446;SDS011;717;51.522;7.266;2023-08-17T05:19:52;6.78;;;4.32;;
1446;SDS011;717;51.522;7.266;2023-08-17T05:22:22;5.38;;;4.57;;
1446;SDS011;717;51.522;7.266;2023-08-17T05:24:53;4.53;;;4.10;;
1446;SDS011;717;51.522;7.266;2023-08-17T05:27:25;6.00;;;4.80;;
1446;SDS011;717;51.522;7.266;2023-08-17T05:29:55;4.80;;;3.95;;
1446;SDS011;717;51.522;7.266;2023-08-17T05:32:26;6.22;;;3.65;;
1446;SDS011;717;51.522;7.266;2023-08-17T05:34:56;5.50;;;4.22;;
1446;SDS011;717;51.522;7.266;2023-08-17T05:37:27;5.13;;;4.03;;
1446;SDS011;717;51.522;7.266;2023-08-17T05:39:57;6.18;;;4.10;;
1446;SDS011;717;51.522;7.266;2023-08-17T05:42:30;4.53;;;4.13;;
1446;SDS011;717;51.522;7.266;2023-08-17T05:45:00;5.53;;;4.45;;
1446;SDS011;717;51.522;7.266;2023-08-17T05:47:30;4.45;;;4.05;;
1446;SDS011;717;51.522;7.266;2023-08-17T05:50:00;5.22;;;4.40;;
1446;SDS011;717;51.522;7.266;2023-08-17T05:52:31;6.82;;;4.47;;
1446;SDS011;717;51.522;7.266;2023-08-17T05:55:01;5.50;;;4.72;;
1446;SDS011;717;51.522;7.266;2023-08-17T05:57:34;7.45;;;4.38;;
1446;SDS011;717;51.522;7.266;2023-08-17T06:00:05;5.30;;;4.57;;
1446;SDS011;717;51.522;7.266;2023-08-17T06:02:41;6.63;;;4.45;;
1446;SDS011;717;51.522;7.266;2023-08-17T06:05:16;6.82;;;4.68;;
1446;SDS011;717;51.522;7.266;2023-08-17T06:07:46;5.85;;;5.00;;
1446;SDS011;717;51.522;7.266;2023-08-17T06:10:17;6.30;;;4.80;;
1446;SDS011;717;51.522;7.266;2023-08-17T06:12:50;8.57;;;4.90;;
1446;SDS011;717;51.522;7.266;2023-08-17T06:15:20;7.07;;;4.50;;
1446;SDS011;717;51.522;7.266;2023-08-17T06:17:51;5.55;;;5.05;;
1446;SDS011;717;51.522;7.266;2023-08-17T06:20:21;5.95;;;4.90;;
1446;SDS011;717;51.522;7.266;2023-08-17T06:22:52;6.18;;;5.07;;
1446;SDS011;717;51.522;7.266;2023-08-17T06:25:24;7.60;;;5.80;;
1446;SDS011;717;51.522;7.266;2023-08-17T06:27:57;7.88;;;6.63;;
1446;SDS011;717;51.522;7.266;2023-08-17T06:30:27;7.50;;;6.65;;
1446;SDS011;717;51.522;7.266;2023-08-17T06:32:57;7.53;;;6.68;;
1446;SDS011;717;51.522;7.266;2023-08-17T06:35:28;7.85;;;7.03;;
1446;SDS011;717;51.522;7.266;2023-08-17T06:37:58;7.20;;;6.40;;
1446;SDS011;717;51.522;7.266;2023-08-17T06:40:28;7.80;;;7.05;;
1446;SDS011;717;51.522;7.266;2023-08-17T06:43:01;11.75;;;7.07;;
1446;SDS011;717;51.522;7.266;2023-08-17T06:45:32;9.73;;;7.35;;
1446;SDS011;717;51.522;7.266;2023-08-17T06:48:02;10.88;;;8.55;;
1446;SDS011;717;51.522;7.266;2023-08-17T06:50:33;9.13;;;8.20;;
1446;SDS011;717;51.522;7.266;2023-08-17T06:53:04;8.82;;;7.80;;
1446;SDS011;717;51.522;7.266;2023-08-17T06:55:34;9.40;;;7.80;;
1446;SDS011;717;51.522;7.266;2023-08-17T06:58:07;10.48;;;7.68;;
1446;SDS011;717;51.522;7.266;2023-08-17T07:00:37;7.82;;;6.82;;
1446;SDS011;717;51.522;7.266;2023-08-17T07:03:08;9.32;;;8.27;;
1446;SDS011;717;51.522;7.266;2023-08-17T07:05:39;10.98;;;7.95;;
1446;SDS011;717;51.522;7.266;2023-08-17T07:08:09;9.05;;;7.28;;
1446;SDS011;717;51.522;7.266;2023-08-17T07:10:40;10.48;;;7.28;;
1446;SDS011;717;51.522;7.266;2023-08-17T07:13:12;9.00;;;8.10;;
1446;SDS011;717;51.522;7.266;2023-08-17T07:15:43;10.20;;;7.38;;
1446;SDS011;717;51.522;7.266;2023-08-17T07:18:13;8.43;;;7.38;;
1446;SDS011;717;51.522;7.266;2023-08-17T07:20:43;9.73;;;8.10;;
1446;SDS011;717;51.522;7.266;2023-08-17T07:23:13;9.05;;;7.50;;
1446;SDS011;717;51.522;7.266;2023-08-17T07:25:44;10.18;;;8.52;;
1446;SDS011;717;51.522;7.266;2023-08-17T07:28:17;11.23;;;8.52;;
1446;SDS011;717;51.522;7.266;2023-08-17T07:30:47;10.55;;;7.95;;
1446;SDS011;717;51.522;7.266;2023-08-17T07:33:17;11.05;;;8.23;;
1446;SDS011;717;51.522;7.266;2023-08-17T07:35:47;11.32;;;8.65;;
1446;SDS011;717;51.522;7.266;2023-08-17T07:38:19;11.60;;;8.80;;
1446;SDS011;717;51.522;7.266;2023-08-17T07:40:50;10.27;;;9.27;;
1446;SDS011;717;51.522;7.266;2023-08-17T07:43:22;15.20;;;9.05;;
1446;SDS011;717;51.522;7.266;2023-08-17T07:45:53;14.07;;;10.27;;
1446;SDS011;717;51.522;7.266;2023-08-17T07:48:24;12.73;;;9.55;;
1446;SDS011;717;51.522;7.266;2023-08-17T07:50:54;11.98;;;9.32;;
1446;SDS011;717;51.522;7.266;2023-08-17T07:53:24;11.02;;;9.60;;
1446;SDS011;717;51.522;7.266;2023-08-17T07:55:54;14.55;;;9.93;;
1446;SDS011;717;51.522;7.266;2023-08-17T07:58:27;12.10;;;10.70;;
1446;SDS011;717;51.522;7.266;2023-08-17T08:00:57;13.07;;;10.55;;
1446;SDS011;717;51.522;7.266;2023-08-17T08:03:29;11.95;;;10.75;;
1446;SDS011;717;51.522;7.266;2023-08-17T08:05:59;11.35;;;10.25;;
1446;SDS011;717;51.522;7.266;2023-08-17T08:08:30;12.38;;;11.00;;
1446;SDS011;717;51.522;7.266;2023-08-17T08:11:00;12.80;;;11.50;;
1446;SDS011;717;51.522;7.266;2023-08-17T08:13:33;12.02;;;10.90;;
1446;SDS011;717;51.522;7.266;2023-08-17T08:16:04;13.45;;;11.68;;
1446;SDS011;717;51.522;7.266;2023-08-17T08:18:35;15.38;;;11.15;;
1446;SDS011;717;51.522;7.266;2023-08-17T08:21:06;12.32;;;11.23;;
1446;SDS011;717;51.522;7.266;2023-08-17T08:23:36;12.35;;;11.15;;
1446;SDS011;717;51.522;7.266;2023-08-17T08:26:06;13.23;;;11.82;;
1446;SDS011;717;51.522;7.266;2023-08-17T08:28:39;11.93;;;10.82;;
1446;SDS011;717;51.522;7.266;2023-08-17T08:31:09;13.00;;;11.32;;
1446;SDS011;717;51.522;7.266;2023-08-17T08:33:39;13.52;;;12.18;;
1446;SDS011;717;51.522;7.266;2023-08-17T08:36:10;13.55;;;12.27;;
1446;SDS011;717;51.522;7.266;2023-08-17T08:38:40;13.60;;;12.45;;
1446;SDS011;717;51.522;7.266;2023-08-17T08:41:10;15.75;;;14.27;;
1446;SDS011;717;51.522;7.266;2023-08-17T08:43:43;15.23;;;13.77;;
1446;SDS011;717;51.522;7.266;2023-08-17T08:46:14;15.43;;;13.90;;
1446;SDS011;717;51.522;7.266;2023-08-17T08:48:47;16.58;;;15.05;;
1446;SDS011;717;51.522;7.266;2023-08-17T08:51:21;15.65;;;14.13;;
1446;SDS011;717;51.522;7.266;2023-08-17T08:53:59;15.52;;;14.07;;
1446;SDS011;717;51.522;7.266;2023-08-17T08:56:32;16.70;;;15.00;;
1446;SDS011;717;51.522;7.266;2023-08-17T08:59:05;19.65;;;16.48;;
1446;SDS011;717;51.522;7.266;2023-08-17T09:01:36;18.00;;;16.25;;
1446;SDS011;717;51.522;7.266;2023-08-17T09:04:07;19.30;;;17.52;;
1446;SDS011;717;51.522;7.266;2023-08-17T09:06:38;19.65;;;17.58;;
1446;SDS011;717;51.522;7.266;2023-08-17T09:09:11;24.40;;;21.85;;
1446;SDS011;717;51.522;7.266;2023-08-17T09:11:45;25.17;;;22.70;;
1446;SDS011;717;51.522;7.266;2023-08-17T09:14:18;25.65;;;22.83;;
1446;SDS011;717;51.522;7.266;2023-08-17T09:16:48;24.98;;;22.30;;
1446;SDS011;717;51.522;7.266;2023-08-17T09:19:18;19.85;;;17.75;;
1446;SDS011;717;51.522;7.266;2023-08-17T09:21:49;16.40;;;14.70;;
1446;SDS011;717;51.522;7.266;2023-08-17T09:24:19;14.43;;;12.75;;
1446;SDS011;717;51.522;7.266;2023-08-17T09:26:50;13.38;;;12.05;;
1446;SDS011;717;51.522;7.266;2023-08-17T09:29:24;13.73;;;11.82;;
1446;SDS011;717;51.522;7.266;2023-08-17T09:31:58;15.93;;;13.45;;
1446;SDS011;717;51.522;7.266;2023-08-17T09:34:30;12.95;;;11.60;;
1446;SDS011;717;51.522;7.266;2023-08-17T09:37:04;14.15;;;12.45;;
1446;SDS011;717;51.522;7.266;2023-08-17T09:39:34;13.07;;;11.75;;
1446;SDS011;717;51.522;7.266;2023-08-17T09:42:05;15.63;;;12.95;;
1446;SDS011;717;51.522;7.266;2023-08-17T09:44:38;14.45;;;12.88;;
1446;SDS011;717;51.522;7.266;2023-08-17T09:47:08;13.13;;;11.75;;
1446;SDS011;717;51.522;7.266;2023-08-17T09:49:40;16.48;;;14.02;;
1446;SDS011;717;51.522;7.266;2023-08-17T09:52:10;15.20;;;13.55;;
1446;SDS011;717;51.522;7.266;2023-08-17T09:54:40;18.80;;;15.52;;
1446;SDS011;717;51.522;7.266;2023-08-17T09:57:11;16.40;;;14.13;;
1446;SDS011;717;51.522;7.266;2023-08-17T09:59:51;17.25;;;15.38;;
1446;SDS011;717;51.522;7.266;2023-08-17T10:02:22;18.52;;;16.63;;
1446;SDS011;717;51.522;7.266;2023-08-17T10:04:53;19.95;;;17.15;;
1446;SDS011;717;51.522;7.266;2023-08-17T10:07:28;24.05;;;21.27;;
1446;SDS011;717;51.522;7.266;2023-08-17T10:10:02;28.33;;;25.38;;
1446;SDS011;717;51.522;7.266;2023-08-17T10:12:35;28.30;;;25.25;;
1446;SDS011;717;51.522;7.266;2023-08-17T10:15:10;29.85;;;25.65;;
1446;SDS011;717;51.522;7.266;2023-08-17T10:17:48;31.10;;;27.33;;
1446;SDS011;717;51.522;7.266;2023-08-17T10:20:25;29.45;;;25.98;;
1446;SDS011;717;51.522;7.266;2023-08-17T10:23:00;28.08;;;24.92;;
1446;SDS011;717;51.522;7.266;2023-08-17T10:25:37;31.27;;;27.50;;
1446;SDS011;717;51.522;7.266;2023-08-17T10:28:09;33.65;;;27.90;;
1446;SDS011;717;51.522;7.266;2023-08-17T10:30:44;28.98;;;26.05;;
1446;SDS011;717;51.522;7.266;2023-08-17T10:33:14;29.90;;;26.83;;
1446;SDS011;717;51.522;7.266;2023-08-17T10:35:45;31.55;;;27.05;;
1446;SDS011;717;51.522;7.266;2023-08-17T10:38:17;29.52;;;25.85;;
1446;SDS011;717;51.522;7.266;2023-08-17T10:41:06;29.35;;;26.27;;
1446;SDS011;717;51.522;7.266;2023-08-17T10:43:53;27.83;;;24.88;;
1446;SDS011;717;51.522;7.266;2023-08-17T10:46:36;28.45;;;25.25;;
1446;SDS011;717;51.522;7.266;2023-08-17T10:49:08;28.02;;;24.95;;
1446;SDS011;717;51.522;7.266;2023-08-17T10:52:00;28.35;;;25.35;;
1446;SDS011;717;51.522;7.266;2023-08-17T10:54:36;31.05;;;27.42;;
1446;SDS011;717;51.522;7.266;2023-08-17T11:00:07;29.23;;;26.23;;
1446;SDS011;717;51.522;7.266;2023-08-17T11:02:54;27.60;;;24.80;;
1446;SDS011;717;51.522;7.266;2023-08-17T11:05:35;27.02;;;24.02;;
1446;SDS011;717;51.522;7.266;2023-08-17T11:08:07;24.83;;;22.33;;
1446;SDS011;717;51.522;7.266;2023-08-17T11:10:40;26.25;;;23.65;;
1446;SDS011;717;51.522;7.266;2023-08-17T11:13:17;25.83;;;22.75;;
1446;SDS011;717;51.522;7.266;2023-08-17T11:15:47;29.33;;;26.25;;
1446;SDS011;717;51.522;7.266;2023-08-17T11:18:22;31.60;;;28.40;;
1446;SDS011;717;51.522;7.266;2023-08-17T11:20:52;30.35;;;27.17;;
1446;SDS011;717;51.522;7.266;2023-08-17T11:23:23;31.02;;;27.65;;
1446;SDS011;717;51.522;7.266;2023-08-17T11:25:54;30.65;;;27.35;;
1446;SDS011;717;51.522;7.266;2023-08-17T11:28:25;31.15;;;27.48;;
1446;SDS011;717;51.522;7.266;2023-08-17T11:31:00;30.77;;;25.92;;
1446;SDS011;717;51.522;7.266;2023-08-17T11:33:35;29.20;;;25.40;;
1446;SDS011;717;51.522;7.266;2023-08-17T11:36:07;28.38;;;24.40;;
1446;SDS011;717;51.522;7.266;2023-08-17T11:38:39;23.25;;;20.75;;
1446;SDS011;717;51.522;7.266;2023-08-17T11:41:10;17.58;;;15.68;;
1446;SDS011;717;51.522;7.266;2023-08-17T11:43:44;15.85;;;13.70;;
1446;SDS011;717;51.522;7.266;2023-08-17T11:46:15;16.58;;;13.00;;
1446;SDS011;717;51.522;7.266;2023-08-17T11:48:51;15.00;;;13.50;;
1446;SDS011;717;51.522;7.266;2023-08-17T11:51:28;15.40;;;13.57;;
1446;SDS011;717;51.522;7.266;2023-08-17T11:53:59;16.58;;;14.70;;
1446;SDS011;717;51.522;7.266;2023-08-17T11:56:31;15.73;;;14.23;;
1446;SDS011;717;51.522;7.266;2023-08-17T11:59:08;15.30;;;13.80;;
1446;SDS011;717;51.522;7.266;2023-08-17T12:01:40;14.52;;;13.07;;
1446;SDS011;717;51.522;7.266;2023-08-17T12:04:14;16.33;;;13.85;;
1446;SDS011;717;51.522;7.266;2023-08-17T12:06:44;15.70;;;14.13;;
1446;SDS011;717;51.522;7.266;2023-08-17T12:09:14;15.20;;;13.57;;
1446;SDS011;717;51.522;7.266;2023-08-17T12:11:45;17.23;;;15.43;;
1446;SDS011;717;51.522;7.266;2023-08-17T12:14:15;18.85;;;16.92;;
1446;SDS011;717;51.522;7.266;2023-08-17T12:16:46;19.02;;;16.60;;
1446;SDS011;717;51.522;7.266;2023-08-17T12:19:21;21.27;;;18.65;;
1446;SDS011;717;51.522;7.266;2023-08-17T12:21:53;24.58;;;21.92;;
1446;SDS011;717;51.522;7.266;2023-08-17T12:24:24;22.98;;;20.67;;
1446;SDS011;717;51.522;7.266;2023-08-17T12:26:56;21.45;;;19.25;;
1446;SDS011;717;51.522;7.266;2023-08-17T12:29:27;21.58;;;19.25;;
1446;SDS011;717;51.522;7.266;2023-08-17T12:31:57;19.92;;;17.98;;
1446;SDS011;717;51.522;7.266;2023-08-17T12:34:30;22.23;;;19.85;;
1446;SDS011;717;51.522;7.266;2023-08-17T12:37:01;24.20;;;21.70;;
1446;SDS011;717;51.522;7.266;2023-08-17T12:39:31;27.20;;;24.23;;
1446;SDS011;717;51.522;7.266;2023-08-17T12:42:01;26.10;;;23.10;;
1446;SDS011;717;51.522;7.266;2023-08-17T12:44:37;27.20;;;24.40;;
1446;SDS011;717;51.522;7.266;2023-08-17T12:47:08;28.23;;;24.30;;
1446;SDS011;717;51.522;7.266;2023-08-17T12:49:40;28.02;;;25.08;;
1446;SDS011;717;51.522;7.266;2023-08-17T12:52:11;27.35;;;24.58;;
1446;SDS011;717;51.522;7.266;2023-08-17T12:54:41;28.45;;;25.55;;
1446;SDS011;717;51.522;7.266;2023-08-17T12:57:11;28.63;;;25.83;;
1446;SDS011;717;51.522;7.266;2023-08-17T12:59:41;26.25;;;23.58;;
1446;SDS011;717;51.522;7.266;2023-08-17T13:02:12;27.02;;;24.30;;
1446;SDS011;717;51.522;7.266;2023-08-17T13:04:45;25.23;;;22.77;;
1446;SDS011;717;51.522;7.266;2023-08-17T13:07:15;25.02;;;22.45;;
1446;SDS011;717;51.522;7.266;2023-08-17T13:09:45;21.95;;;19.75;;
1446;SDS011;717;51.522;7.266;2023-08-17T13:12:15;18.65;;;16.73;;
1446;SDS011;717;51.522;7.266;2023-08-17T13:14:45;16.65;;;14.95;;
1446;SDS011;717;51.522;7.266;2023-08-17T13:17:15;17.10;;;15.32;;
1446;SDS011;717;51.522;7.266;2023-08-17T13:19:48;15.85;;;13.40;;
1446;SDS011;717;51.522;7.266;2023-08-17T13:22:18;16.88;;;15.27;;
1446;SDS011;717;51.522;7.266;2023-08-17T13:24:49;15.50;;;14.00;;
1446;SDS011;717;51.522;7.266;2023-08-17T13:27:19;21.73;;;14.80;;
1446;SDS011;717;51.522;7.266;2023-08-17T13:29:49;16.13;;;14.43;;
1446;SDS011;717;51.522;7.266;2023-08-17T13:32:19;14.85;;;13.35;;
1446;SDS011;717;51.522;7.266;2023-08-17T13:34:51;14.73;;;13.30;;
1446;SDS011;717;51.522;7.266;2023-08-17T13:37:22;16.08;;;14.23;;
1446;SDS011;717;51.522;7.266;2023-08-17T13:39:52;16.13;;;14.40;;
1446;SDS011;717;51.522;7.266;2023-08-17T13:42:22;17.80;;;15.95;;
1446;SDS011;717;51.522;7.266;2023-08-17T13:44:53;17.73;;;15.88;;
1446;SDS011;717;51.522;7.266;2023-08-17T13:47:23;17.35;;;14.82;;
1446;SDS011;717;51.522;7.266;2023-08-17T13:49:56;18.77;;;16.90;;
1446;SDS011;717;51.522;7.266;2023-08-17T13:52:26;19.23;;;17.35;;
1446;SDS011;717;51.522;7.266;2023-08-17T13:54:56;18.27;;;16.38;;
1446;SDS011;717;51.522;7.266;2023-08-17T13:57:26;18.55;;;16.58;;
1446;SDS011;717;51.522;7.266;2023-08-17T13:59:56;18.40;;;16.50;;
1446;SDS011;717;51.522;7.266;2023-08-17T14:02:27;16.88;;;15.18;;
1446;SDS011;717;51.522;7.266;2023-08-17T14:05:00;16.67;;;15.02;;
1446;SDS011;717;51.522;7.266;2023-08-17T14:07:30;16.98;;;15.20;;
1446;SDS011;717;51.522;7.266;2023-08-17T14:10:00;18.42;;;15.93;;
1446;SDS011;717;51.522;7.266;2023-08-17T14:12:44;16.38;;;14.77;;
1446;SDS011;717;51.522;7.266;2023-08-17T14:15:14;15.32;;;13.85;;
1446;SDS011;717;51.522;7.266;2023-08-17T14:17:44;16.55;;;14.63;;
1446;SDS011;717;51.522;7.266;2023-08-17T14:20:17;16.60;;;14.93;;
1446;SDS011;717;51.522;7.266;2023-08-17T14:22:46;17.40;;;15.60;;
1446;SDS011;717;51.522;7.266;2023-08-17T14:25:17;18.05;;;16.17;;
1446;SDS011;717;51.522;7.266;2023-08-17T14:27:50;17.35;;;15.57;;
1446;SDS011;717;51.522;7.266;2023-08-17T14:30:20;18.73;;;16.45;;
1446;SDS011;717;51.522;7.266;2023-08-17T14:32:51;17.25;;;15.35;;
1446;SDS011;717;51.522;7.266;2023-08-17T14:35:29;16.23;;;14.73;;
1446;SDS011;717;51.522;7.266;2023-08-17T14:37:59;18.27;;;16.38;;
1446;SDS011;717;51.522;7.266;2023-08-17T14:40:29;17.70;;;15.82;;
1446;SDS011;717;51.522;7.266;2023-08-17T14:42:59;18.42;;;16.63;;
1446;SDS011;717;51.522;7.266;2023-08-17T14:45:29;16.98;;;15.18;;
1446;SDS011;717;51.522;7.266;2023-08-17T14:48:00;17.05;;;15.20;;
1446;SDS011;717;51.522;7.266;2023-08-17T14:50:33;17.08;;;15.13;;
1446;SDS011;717;51.522;7.266;2023-08-17T14:53:03;16.02;;;14.48;;
1446;SDS011;717;51.522;7.266;2023-08-17T14:55:34;15.43;;;14.00;;
1446;SDS011;717;51.522;7.266;2023-08-17T14:58:05;15.43;;;13.93;;
1446;SDS011;717;51.522;7.266;2023-08-17T15:00:35;14.75;;;13.35;;
1446;SDS011;717;51.522;7.266;2023-08-17T15:03:05;15.60;;;13.98;;
1446;SDS011;717;51.522;7.266;2023-08-17T15:05:38;14.43;;;13.00;;
1446;SDS011;717;51.522;7.266;2023-08-17T15:08:08;15.60;;;14.05;;
1446;SDS011;717;51.522;7.266;2023-08-17T15:10:38;14.98;;;13.57;;
1446;SDS011;717;51.522;7.266;2023-08-17T15:13:08;14.57;;;13.15;;
1446;SDS011;717;51.522;7.266;2023-08-17T15:15:38;14.45;;;13.00;;
1446;SDS011;717;51.522;7.266;2023-08-17T15:18:09;13.23;;;11.88;;
1446;SDS011;717;51.522;7.266;2023-08-17T15:20:42;13.43;;;12.02;;
1446;SDS011;717;51.522;7.266;2023-08-17T15:23:13;12.52;;;11.23;;
1446;SDS011;717;51.522;7.266;2023-08-17T15:25:44;12.27;;;10.73;;
1446;SDS011;717;51.522;7.266;2023-08-17T15:28:14;12.75;;;11.52;;
1446;SDS011;717;51.522;7.266;2023-08-17T15:30:45;13.13;;;11.77;;
1446;SDS011;717;51.522;7.266;2023-08-17T15:33:18;14.40;;;11.15;;
1446;SDS011;717;51.522;7.266;2023-08-17T15:35:51;13.02;;;11.43;;
1446;SDS011;717;51.522;7.266;2023-08-17T15:38:21;12.13;;;11.02;;
1446;SDS011;717;51.522;7.266;2023-08-17T15:40:51;12.15;;;10.88;;
1446;SDS011;717;51.522;7.266;2023-08-17T15:43:21;11.20;;;10.20;;
1446;SDS011;717;51.522;7.266;2023-08-17T15:45:52;10.40;;;9.45;;